Time;durP1;ratioP1;P1;durP2;ratioP2;P2;SDS_P1;SDS_P2;PMS_P1;PMS_P2;Temp;Humidity;BMP_temperature;BMP_pressure;BME280_temperature;BME280_humidity;BME280_pressure;Samples;Min_cycle;Max_cycle;Signal;HPM_P1;HPM_P2
2022/07/11 00:01:28;;;;;;;8.75;2.17;;;;;;;;;;10327267;28;20444;-52
2022/07/11 00:06:29;;;;;;;7.00;1.52;;;;;;;;;;10319379;28;20061;-53
2022/07/11 00:11:29;;;;;;;3.53;1.45;;;;;;;;;;10327094;28;20258;-49
2022/07/11 00:16:30;;;;;;;2.05;1.27;;;;;;;;;;10324274;28;20133;-52
2022/07/11 00:21:31;;;;;;;7.68;1.70;;;;;;;;;;10329335;28;20029;-50
2022/07/11 00:26:32;;;;;;;2.92;1.60;;;;;;;;;;10318039;28;20046;-47
2022/07/11 00:31:33;;;;;;;2.33;1.60;;;;;;;;;;10323699;28;20034;-50
2022/07/11 00:36:33;;;;;;;6.38;1.70;;;;;;;;;;10316009;28;20035;-50
2022/07/11 00:41:34;;;;;;;3.03;1.70;;;;;;;;;;10317984;28;20027;-51
2022/07/11 00:46:35;;;;;;;3.17;1.50;;;;;;;;;;10323577;28;20485;-57
2022/07/11 00:51:36;;;;;;;4.30;1.58;;;;;;;;;;10330342;28;20017;-48
2022/07/11 00:56:37;;;;;;;7.13;1.70;;;;;;;;;;10310840;28;20458;-50
2022/07/11 01:01:38;;;;;;;4.93;1.73;;;;;;;;;;10312962;28;20027;-52
2022/07/11 01:06:39;;;;;;;8.25;1.88;;;;;;;;;;10297537;28;20434;-50
2022/07/11 01:11:39;;;;;;;2.72;1.52;;;;;;;;;;10332825;28;20033;-51
2022/07/11 01:16:40;;;;;;;4.45;1.50;;;;;;;;;;10327468;28;20225;-52
2022/07/11 01:21:45;;;;;;;2.13;1.35;;;;;;;;;;10331005;28;20496;-49
2022/07/11 01:26:47;;;;;;;2.50;1.35;;;;;;;;;;10329195;28;20192;-55
2022/07/11 01:31:47;;;;;;;4.82;1.63;;;;;;;;;;10327054;28;20037;-52
2022/07/11 01:36:48;;;;;;;8.05;1.55;;;;;;;;;;10310205;28;20046;-53
2022/07/11 01:41:48;;;;;;;3.42;1.33;;;;;;;;;;10332251;28;20141;-50
2022/07/11 01:46:49;;;;;;;6.68;1.80;;;;;;;;;;10329836;28;20031;-55
2022/07/11 01:51:50;;;;;;;5.53;1.80;;;;;;;;;;10327880;28;20445;-52
2022/07/11 01:56:50;;;;;;;20.05;1.80;;;;;;;;;;10337073;28;20083;-53
2022/07/11 02:01:52;;;;;;;5.53;1.75;;;;;;;;;;10321154;28;20529;-48
2022/07/11 02:06:53;;;;;;;3.92;1.45;;;;;;;;;;10294306;28;20118;-55
2022/07/11 02:11:54;;;;;;;3.03;1.70;;;;;;;;;;10328820;28;20056;-52
2022/07/11 02:16:55;;;;;;;5.88;2.00;;;;;;;;;;10326197;28;20045;-52
2022/07/11 02:21:55;;;;;;;2.90;1.50;;;;;;;;;;10326422;28;20036;-51
2022/07/11 02:26:56;;;;;;;4.88;2.13;;;;;;;;;;10325697;28;20042;-50
2022/07/11 02:31:56;;;;;;;3.50;1.48;;;;;;;;;;10327955;28;20165;-49
2022/07/11 02:36:57;;;;;;;7.57;1.80;;;;;;;;;;10327450;28;20046;-50
2022/07/11 02:41:58;;;;;;;11.68;1.77;;;;;;;;;;10325144;28;20030;-52
2022/07/11 02:46:58;;;;;;;3.72;1.45;;;;;;;;;;10327431;28;20073;-53
2022/07/11 02:51:59;;;;;;;3.28;1.67;;;;;;;;;;10330296;28;20049;-55
2022/07/11 02:57:00;;;;;;;4.05;1.52;;;;;;;;;;10325554;28;20034;-54
2022/07/11 03:02:04;;;;;;;4.45;1.65;;;;;;;;;;10321522;28;20066;-51
2022/07/11 03:07:05;;;;;;;7.82;1.55;;;;;;;;;;10311839;28;20026;-53
2022/07/11 03:12:06;;;;;;;3.72;1.38;;;;;;;;;;10326537;28;20034;-53
2022/07/11 03:17:06;;;;;;;5.07;1.73;;;;;;;;;;10307363;28;20461;-54
2022/07/11 03:22:07;;;;;;;4.93;1.73;;;;;;;;;;10322973;28;20089;-52
2022/07/11 03:27:09;;;;;;;4.00;2.15;;;;;;;;;;10325794;28;20046;-52
2022/07/11 03:32:09;;;;;;;2.67;1.50;;;;;;;;;;10326028;28;20034;-52
2022/07/11 03:37:10;;;;;;;5.90;1.50;;;;;;;;;;10322284;28;20297;-50
2022/07/11 03:42:10;;;;;;;6.97;1.60;;;;;;;;;;10321933;28;20093;-51
2022/07/11 03:47:11;;;;;;;5.90;1.70;;;;;;;;;;10326022;28;20026;-53
2022/07/11 03:52:12;;;;;;;5.40;1.67;;;;;;;;;;10325278;28;20026;-53
2022/07/11 03:57:13;;;;;;;4.43;1.40;;;;;;;;;;10325066;28;20089;-52
2022/07/11 04:02:13;;;;;;;6.30;1.80;;;;;;;;;;10325247;28;20437;-51
2022/07/11 04:07:14;;;;;;;5.25;1.55;;;;;;;;;;10324245;28;20405;-51
2022/07/11 04:12:14;;;;;;;2.97;1.70;;;;;;;;;;10326000;28;20113;-51
2022/07/11 04:17:15;;;;;;;4.18;1.55;;;;;;;;;;10312319;28;20039;-52
2022/07/11 04:22:24;;;;;;;2.80;2.05;;;;;;;;;;10324570;28;20031;-51
2022/07/11 04:27:25;;;;;;;3.75;1.40;;;;;;;;;;10301675;28;20069;-54
2022/07/11 04:32:25;;;;;;;3.25;1.50;;;;;;;;;;10325577;28;20029;-48
2022/07/11 04:37:26;;;;;;;4.28;1.50;;;;;;;;;;10332867;28;20030;-51
2022/07/11 04:42:27;;;;;;;5.20;1.70;;;;;;;;;;10328957;28;20037;-51
2022/07/11 04:47:27;;;;;;;4.10;1.48;;;;;;;;;;10330975;28;20049;-48
2022/07/11 04:52:28;;;;;;;4.00;1.75;;;;;;;;;;10330167;28;20474;-49
2022/07/11 04:57:28;;;;;;;7.40;1.42;;;;;;;;;;10328622;28;20409;-53
2022/07/11 05:02:29;;;;;;;3.58;1.40;;;;;;;;;;10327517;28;20035;-53
2022/07/11 05:07:29;;;;;;;8.18;1.60;;;;;;;;;;10330858;28;20278;-52
2022/07/11 05:12:31;;;;;;;3.95;1.40;;;;;;;;;;10324873;28;20077;-48
2022/07/11 05:17:31;;;;;;;4.53;1.33;;;;;;;;;;10328422;28;20034;-52
2022/07/11 05:22:32;;;;;;;1.75;1.33;;;;;;;;;;10329095;28;20437;-55
2022/07/11 05:27:33;;;;;;;9.95;1.50;;;;;;;;;;10325860;22;20055;-51
2022/07/11 05:32:34;;;;;;;5.90;1.40;;;;;;;;;;10335538;28;20038;-62
2022/07/11 05:37:35;;;;;;;3.75;1.60;;;;;;;;;;10295152;28;20038;-54
2022/07/11 05:42:35;;;;;;;22.80;3.03;;;;;;;;;;10284979;28;20034;-55
2022/07/11 05:47:36;;;;;;;46.20;5.38;;;;;;;;;;10298197;28;20042;-53
2022/07/11 05:52:36;;;;;;;43.00;4.72;;;;;;;;;;10296962;28;20466;-52
2022/07/11 05:57:37;;;;;;;39.05;4.07;;;;;;;;;;10293977;28;20042;-54
2022/07/11 06:02:37;;;;;;;33.33;4.00;;;;;;;;;;10296697;28;20093;-54
2022/07/11 06:12:57;;;;;;;22.45;3.22;;;;;;;;;;10310465;28;20050;-46
2022/07/11 06:17:58;;;;;;;15.07;3.22;;;;;;;;;;10290451;28;20528;-51
2022/07/11 06:22:59;;;;;;;19.63;2.97;;;;;;;;;;10293442;28;20118;-48
2022/07/11 06:28:00;;;;;;;16.60;2.80;;;;;;;;;;10307014;28;20061;-50
2022/07/11 06:33:01;;;;;;;11.43;2.33;;;;;;;;;;10314345;28;20149;-49
2022/07/11 06:38:01;;;;;;;18.27;2.80;;;;;;;;;;10292307;28;20097;-46
2022/07/11 06:43:02;;;;;;;9.68;2.40;;;;;;;;;;10311603;28;20039;-49
2022/07/11 06:48:04;;;;;;;14.65;2.28;;;;;;;;;;10317155;28;20552;-50
2022/07/11 06:53:05;;;;;;;11.43;2.45;;;;;;;;;;10305344;28;20309;-55
2022/07/11 06:58:06;;;;;;;7.97;2.22;;;;;;;;;;10311023;28;20250;-48
2022/07/11 07:03:08;;;;;;;8.20;1.80;;;;;;;;;;10297396;28;20467;-48
2022/07/11 07:08:08;;;;;;;8.90;1.73;;;;;;;;;;10270764;28;20035;-55
2022/07/11 07:13:09;;;;;;;11.50;2.70;;;;;;;;;;10271098;28;20098;-52
2022/07/11 07:18:09;;;;;;;5.50;1.58;;;;;;;;;;10261946;28;20383;-47
2022/07/11 07:23:10;;;;;;;3.65;1.50;;;;;;;;;;10264833;28;20267;-51
2022/07/11 07:28:11;;;;;;;7.97;1.65;;;;;;;;;;10276091;28;20423;-47
2022/07/11 07:33:12;;;;;;;4.30;1.58;;;;;;;;;;10300186;28;20045;-47
2022/07/11 07:38:13;;;;;;;4.65;1.85;;;;;;;;;;10296061;28;20034;-52
2022/07/11 07:43:13;;;;;;;12.27;2.20;;;;;;;;;;10297715;28;20031;-53
2022/07/11 07:48:14;;;;;;;5.40;1.33;;;;;;;;;;10304148;28;20043;-52
2022/07/11 07:53:15;;;;;;;10.30;2.30;;;;;;;;;;10295343;28;20509;-52
2022/07/11 07:58:16;;;;;;;4.70;1.60;;;;;;;;;;10294652;28;20035;-53
2022/07/11 08:03:17;;;;;;;9.82;2.40;;;;;;;;;;10281792;28;20026;-51
2022/07/11 08:08:17;;;;;;;36.22;4.65;;;;;;;;;;10297978;28;20441;-46
2022/07/11 08:13:19;;;;;;;40.50;4.20;;;;;;;;;;10314497;28;20030;-47
2022/07/11 08:18:20;;;;;;;16.92;3.08;;;;;;;;;;10302919;28;20022;-56
2022/07/11 08:23:21;;;;;;;16.63;2.53;;;;;;;;;;10265250;28;20402;-46
2022/07/11 08:28:22;;;;;;;12.07;2.22;;;;;;;;;;10276830;28;20060;-47
2022/07/11 08:33:22;;;;;;;11.57;2.25;;;;;;;;;;10273574;28;20078;-47
2022/07/11 08:38:23;;;;;;;16.25;1.88;;;;;;;;;;10270329;28;20368;-54
2022/07/11 08:43:31;;;;;;;16.00;2.55;;;;;;;;;;10282517;28;20034;-48
2022/07/11 08:48:32;;;;;;;9.05;1.95;;;;;;;;;;10280658;28;20039;-50
2022/07/11 08:53:37;;;;;;;10.40;2.58;;;;;;;;;;10273120;28;20031;-48
2022/07/11 08:58:38;;;;;;;10.75;2.13;;;;;;;;;;10270052;28;20057;-46
2022/07/11 09:03:39;;;;;;;6.82;2.00;;;;;;;;;;10263778;28;20034;-46
2022/07/11 09:08:40;;;;;;;12.32;1.80;;;;;;;;;;10291849;28;20471;-48
2022/07/11 09:13:40;;;;;;;6.07;1.70;;;;;;;;;;10304906;28;20038;-46
2022/07/11 09:18:41;;;;;;;9.02;1.88;;;;;;;;;;10295220;28;20963;-47
2022/07/11 09:29:13;;;;;;;7.15;1.55;;;;;;;;;;10289026;28;20046;-50
2022/07/11 09:34:23;;;;;;;4.78;1.90;;;;;;;;;;10293229;28;20127;-47
2022/07/11 09:39:28;;;;;;;6.32;1.50;;;;;;;;;;10278662;28;20065;-57
2022/07/11 09:44:33;;;;;;;10.20;1.73;;;;;;;;;;10305533;28;20549;-56
2022/07/11 09:49:41;;;;;;;3.50;1.73;;;;;;;;;;10295065;28;20061;-58
2022/07/11 09:55:02;;;;;;;6.10;1.65;;;;;;;;;;10304223;28;20397;-58
2022/07/11 10:00:08;;;;;;;1.88;1.42;;;;;;;;;;10297365;28;20030;-48
2022/07/11 10:05:09;;;;;;;2.13;1.23;;;;;;;;;;10300599;28;20031;-51
2022/07/11 10:10:10;;;;;;;3.08;1.50;;;;;;;;;;10296629;28;20061;-52
2022/07/11 10:15:11;;;;;;;5.75;1.33;;;;;;;;;;10294186;28;20082;-48
2022/07/11 10:20:33;;;;;;;7.07;1.95;;;;;;;;;;10302853;28;20089;-47
2022/07/11 10:25:42;;;;;;;3.05;1.50;;;;;;;;;;10307628;28;20042;-47
2022/07/11 10:30:50;;;;;;;4.60;2.03;;;;;;;;;;10290359;28;20120;-50
2022/07/11 10:35:52;;;;;;;4.22;1.60;;;;;;;;;;10294345;28;20499;-47
2022/07/11 10:40:56;;;;;;;3.50;1.33;;;;;;;;;;10293744;28;20043;-47
2022/07/11 10:46:01;;;;;;;2.10;1.17;;;;;;;;;;10283859;28;20489;-58
2022/07/11 10:51:23;;;;;;;2.35;1.20;;;;;;;;;;10310677;28;20528;-49
2022/07/11 10:57:24;;;;;;;2.92;1.50;;;;;;;;;;10309259;28;20299;-52
2022/07/11 11:02:27;;;;;;;3.00;1.30;;;;;;;;;;10211541;29;20492;-58
2022/07/11 11:07:32;;;;;;;4.45;1.48;;;;;;;;;;10200797;29;20115;-48
2022/07/11 11:13:06;;;;;;;1.98;1.30;;;;;;;;;;10212016;28;20117;-47
2022/07/11 11:18:24;;;;;;;3.78;1.35;;;;;;;;;;10211932;29;20039;-56
2022/07/11 11:23:33;;;;;;;6.82;1.80;;;;;;;;;;10198427;28;20050;-55
2022/07/11 11:28:35;;;;;;;4.70;1.65;;;;;;;;;;10207067;29;20419;-48
2022/07/11 11:33:36;;;;;;;4.82;1.50;;;;;;;;;;10223137;28;20043;-57
2022/07/11 11:38:40;;;;;;;6.93;1.65;;;;;;;;;;10282196;28;20081;-47
2022/07/11 11:43:46;;;;;;;8.32;1.52;;;;;;;;;;10305720;28;20839;-57
2022/07/11 11:48:47;;;;;;;7.97;1.92;;;;;;;;;;10283013;28;20022;-56
2022/07/11 11:53:52;;;;;;;6.22;1.83;;;;;;;;;;10301850;28;20038;-47
2022/07/11 11:58:57;;;;;;;7.05;2.13;;;;;;;;;;10295467;28;20030;-47
2022/07/11 12:03:59;;;;;;;5.68;1.55;;;;;;;;;;10298710;28;20050;-54
2022/07/11 12:09:10;;;;;;;10.55;1.65;;;;;;;;;;10295224;28;20113;-48
2022/07/11 12:14:15;;;;;;;10.93;2.20;;;;;;;;;;10286036;28;20033;-58
2022/07/11 12:19:22;;;;;;;8.43;2.10;;;;;;;;;;10275912;28;20082;-57
2022/07/11 12:24:26;;;;;;;8.75;2.00;;;;;;;;;;10255166;28;20306;-56
2022/07/11 12:29:28;;;;;;;4.13;1.60;;;;;;;;;;10282514;28;20034;-56
2022/07/11 12:34:31;;;;;;;12.35;2.10;;;;;;;;;;10243541;28;20037;-56
2022/07/11 12:39:38;;;;;;;10.80;2.15;;;;;;;;;;10280413;28;20066;-54
2022/07/11 12:49:58;;;;;;;8.60;1.70;;;;;;;;;;10302910;28;20035;-56
2022/07/11 12:55:02;;;;;;;5.25;1.42;;;;;;;;;;10303943;28;20030;-47
2022/07/11 13:00:16;;;;;;;3.65;1.60;;;;;;;;;;10288379;28;20091;-57
2022/07/11 13:05:17;;;;;;;7.10;1.70;;;;;;;;;;10296222;28;20038;-55
2022/07/11 13:10:26;;;;;;;4.07;1.60;;;;;;;;;;10297860;28;20062;-58
2022/07/11 13:15:27;;;;;;;5.53;1.40;;;;;;;;;;10290340;28;20074;-57
2022/07/11 13:20:27;;;;;;;3.22;1.70;;;;;;;;;;10299111;28;20066;-53
2022/07/11 13:25:29;;;;;;;4.68;1.60;;;;;;;;;;10287509;28;20035;-57
2022/07/11 13:30:30;;;;;;;7.78;1.40;;;;;;;;;;10300489;28;20042;-59
2022/07/11 13:35:31;;;;;;;3.67;1.38;;;;;;;;;;10296678;28;20433;-47
2022/07/11 13:40:33;;;;;;;2.72;1.33;;;;;;;;;;10304491;28;20084;-48
2022/07/11 13:45:34;;;;;;;3.42;1.27;;;;;;;;;;10282895;28;20038;-50
2022/07/11 13:50:35;;;;;;;4.53;1.77;;;;;;;;;;10312093;28;20196;-48
2022/07/11 13:55:35;;;;;;;4.00;1.50;;;;;;;;;;10308318;28;20041;-50
2022/07/11 14:00:36;;;;;;;2.47;1.52;;;;;;;;;;10296654;28;20036;-56
2022/07/11 14:05:37;;;;;;;4.18;1.65;;;;;;;;;;10309886;28;20031;-55
2022/07/11 14:10:39;;;;;;;3.90;1.52;;;;;;;;;;10292109;28;20073;-53
2022/07/11 14:15:41;;;;;;;4.28;1.55;;;;;;;;;;10290617;28;20387;-48
2022/07/11 14:20:41;;;;;;;2.47;1.35;;;;;;;;;;10278735;28;20349;-50
2022/07/11 14:25:42;;;;;;;7.18;1.85;;;;;;;;;;10295184;28;20274;-50
2022/07/11 14:30:44;;;;;;;6.85;1.40;;;;;;;;;;10295844;28;20501;-47
2022/07/11 14:35:45;;;;;;;7.93;1.67;;;;;;;;;;10283934;28;20039;-46
2022/07/11 14:40:46;;;;;;;4.18;1.55;;;;;;;;;;10267173;28;20077;-47
2022/07/11 14:45:47;;;;;;;5.45;1.27;;;;;;;;;;10255420;28;20387;-53
2022/07/11 14:50:47;;;;;;;8.43;2.00;;;;;;;;;;10273153;28;20035;-47
2022/07/11 14:55:49;;;;;;;5.22;1.65;;;;;;;;;;10267499;28;20050;-47
2022/07/11 15:00:50;;;;;;;3.63;1.85;;;;;;;;;;10269206;28;20440;-52
2022/07/11 15:05:50;;;;;;;4.38;1.58;;;;;;;;;;10293707;28;20026;-47
2022/07/11 15:16:10;;;;;;;3.22;1.60;;;;;;;;;;10276622;28;20058;-55
2022/07/11 15:21:11;;;;;;;5.25;1.65;;;;;;;;;;10291636;28;20031;-51
2022/07/11 15:26:12;;;;;;;4.78;1.88;;;;;;;;;;10303478;28;20386;-47
2022/07/11 15:31:13;;;;;;;3.13;1.77;;;;;;;;;;10292579;28;20034;-48
2022/07/11 15:36:16;;;;;;;2.53;1.60;;;;;;;;;;10297892;28;20082;-47
2022/07/11 15:41:17;;;;;;;3.47;1.73;;;;;;;;;;10297225;28;20040;-48
2022/07/11 15:46:18;;;;;;;4.28;1.52;;;;;;;;;;10309518;28;20393;-47
2022/07/11 15:51:18;;;;;;;6.68;1.98;;;;;;;;;;10313468;28;20052;-47
2022/07/11 15:56:19;;;;;;;5.88;2.00;;;;;;;;;;10300616;28;20034;-52
2022/07/11 16:01:20;;;;;;;3.65;1.70;;;;;;;;;;10294055;28;20398;-47
2022/07/11 16:06:20;;;;;;;8.98;2.10;;;;;;;;;;10297534;28;20027;-55
2022/07/11 16:11:41;;;;;;;7.00;2.17;;;;;;;;;;10261151;28;20034;-51
2022/07/11 16:16:42;;;;;;;3.42;1.50;;;;;;;;;;10184264;28;20040;-55
2022/07/11 16:21:43;;;;;;;3.17;1.45;;;;;;;;;;10214064;29;20136;-54
2022/07/11 16:26:44;;;;;;;5.15;2.15;;;;;;;;;;10191582;29;20040;-45
2022/07/11 16:31:44;;;;;;;6.75;2.05;;;;;;;;;;10211468;29;20047;-54
2022/07/11 16:36:45;;;;;;;4.55;1.45;;;;;;;;;;10214646;29;20047;-48
2022/07/11 16:47:04;;;;;;;1.80;1.30;;;;;;;;;;10212897;29;20048;-54
2022/07/11 16:52:06;;;;;;;4.43;1.88;;;;;;;;;;10226578;28;20527;-46
2022/07/11 16:57:07;;;;;;;8.00;1.45;;;;;;;;;;10311017;28;20042;-47
2022/07/11 17:02:08;;;;;;;6.80;1.77;;;;;;;;;;10288544;28;20038;-56
2022/07/11 17:07:08;;;;;;;4.00;1.60;;;;;;;;;;10301860;28;20026;-46
2022/07/11 17:12:17;;;;;;;5.18;1.70;;;;;;;;;;10309998;28;20065;-46
2022/07/11 17:17:18;;;;;;;1.90;1.52;;;;;;;;;;10293913;28;20695;-57
2022/07/11 17:22:18;;;;;;;3.95;1.63;;;;;;;;;;10239542;28;20030;-58
2022/07/11 17:27:19;;;;;;;3.75;1.60;;;;;;;;;;10300782;28;20085;-51
2022/07/11 17:32:19;;;;;;;5.75;2.00;;;;;;;;;;10297690;28;20638;-58
2022/07/11 17:37:21;;;;;;;2.95;1.80;;;;;;;;;;10314523;28;20039;-59
2022/07/11 17:42:22;;;;;;;4.15;1.58;;;;;;;;;;10299517;28;20028;-58
2022/07/11 17:47:22;;;;;;;3.03;1.33;;;;;;;;;;10302872;28;20410;-60
2022/07/11 17:52:23;;;;;;;1.70;1.30;;;;;;;;;;10307539;28;20156;-57
2022/07/11 17:57:24;;;;;;;5.47;1.50;;;;;;;;;;10307898;28;20115;-59
2022/07/11 18:02:25;;;;;;;4.05;1.48;;;;;;;;;;10294095;28;20029;-56
2022/07/11 18:07:27;;;;;;;3.85;1.52;;;;;;;;;;10312348;28;20041;-59
2022/07/11 18:12:28;;;;;;;5.22;1.63;;;;;;;;;;10311410;28;20054;-60
2022/07/11 18:17:29;;;;;;;2.40;1.30;;;;;;;;;;10308016;28;20058;-58
2022/07/11 18:22:29;;;;;;;3.08;1.50;;;;;;;;;;10252096;28;20038;-59
2022/07/11 18:27:30;;;;;;;1.30;1.10;;;;;;;;;;10300028;28;20039;-60
2022/07/11 18:32:31;;;;;;;5.22;1.67;;;;;;;;;;10259541;28;20104;-59
2022/07/11 18:37:32;;;;;;;4.18;1.30;;;;;;;;;;10302066;28;20055;-60
2022/07/11 18:42:33;;;;;;;2.33;1.42;;;;;;;;;;10308434;28;20026;-54
2022/07/11 18:47:33;;;;;;;6.05;1.50;;;;;;;;;;10309587;28;20046;-57
2022/07/11 18:52:34;;;;;;;4.20;1.60;;;;;;;;;;10319407;28;20034;-59
2022/07/11 18:57:34;;;;;;;4.75;1.27;;;;;;;;;;10289759;28;20019;-47
2022/07/11 19:02:36;;;;;;;6.80;1.30;;;;;;;;;;10281095;28;20517;-45
2022/07/11 19:07:37;;;;;;;4.82;1.67;;;;;;;;;;10302211;28;20054;-49
2022/07/11 19:12:37;;;;;;;3.45;1.48;;;;;;;;;;10319114;28;20077;-45
2022/07/11 19:17:38;;;;;;;2.90;1.55;;;;;;;;;;10292176;28;20089;-46
2022/07/11 19:22:39;;;;;;;4.97;1.10;;;;;;;;;;10306789;28;20199;-45
2022/07/11 19:27:39;;;;;;;5.07;1.20;;;;;;;;;;10297308;28;20066;-45
2022/07/11 19:32:40;;;;;;;7.22;1.58;;;;;;;;;;10291673;28;20034;-51
2022/07/11 19:37:40;;;;;;;2.95;1.15;;;;;;;;;;10300803;28;20034;-46
2022/07/11 19:42:41;;;;;;;3.15;1.10;;;;;;;;;;10306641;28;20035;-45
2022/07/11 19:47:42;;;;;;;3.03;1.35;;;;;;;;;;10298331;28;20389;-46
2022/07/11 19:52:43;;;;;;;2.67;1.35;;;;;;;;;;10307410;28;20050;-46
2022/07/11 19:57:44;;;;;;;2.90;1.20;;;;;;;;;;10304715;28;20039;-45
2022/07/11 20:02:46;;;;;;;5.57;1.20;;;;;;;;;;10298237;28;20031;-45
2022/07/11 20:07:47;;;;;;;4.30;1.42;;;;;;;;;;10311659;28;20433;-45
2022/07/11 20:12:48;;;;;;;1.75;1.17;;;;;;;;;;10319622;28;20077;-46
2022/07/11 20:17:49;;;;;;;10.30;1.58;;;;;;;;;;10295305;28;20056;-46
2022/07/11 20:22:50;;;;;;;2.42;1.40;;;;;;;;;;10294591;28;20096;-45
2022/07/11 20:27:51;;;;;;;2.65;1.30;;;;;;;;;;10299537;28;20542;-54
2022/07/11 20:32:53;;;;;;;6.55;1.38;;;;;;;;;;10305165;28;20054;-47
2022/07/11 20:37:54;;;;;;;1.67;1.02;;;;;;;;;;10296089;28;20393;-45
2022/07/11 20:42:54;;;;;;;3.50;0.93;;;;;;;;;;10313262;28;20050;-46
2022/07/11 20:47:55;;;;;;;2.30;1.15;;;;;;;;;;10303197;28;20037;-48
2022/07/11 20:52:56;;;;;;;1.90;1.20;;;;;;;;;;10311825;28;20034;-46
2022/07/11 20:57:57;;;;;;;6.70;1.00;;;;;;;;;;10310910;28;20034;-51
2022/07/11 21:02:57;;;;;;;4.45;1.50;;;;;;;;;;10320160;28;20041;-53
2022/07/11 21:07:58;;;;;;;4.53;1.17;;;;;;;;;;10319147;28;20027;-47
2022/07/11 21:12:58;;;;;;;4.28;1.38;;;;;;;;;;10302257;28;20041;-47
2022/07/11 21:17:59;;;;;;;2.17;0.95;;;;;;;;;;10288006;28;20549;-45
2022/07/11 21:23:00;;;;;;;6.07;1.38;;;;;;;;;;10277413;28;20383;-49
2022/07/11 21:28:01;;;;;;;3.20;1.17;;;;;;;;;;10282475;28;20475;-46
2022/07/11 21:33:02;;;;;;;4.43;1.15;;;;;;;;;;10282876;28;20027;-49
2022/07/11 21:38:03;;;;;;;4.20;1.33;;;;;;;;;;10279069;28;20430;-50
2022/07/11 21:43:05;;;;;;;2.28;1.25;;;;;;;;;;10275915;28;20313;-50
2022/07/11 21:48:05;;;;;;;2.40;1.25;;;;;;;;;;10271129;28;20054;-50
2022/07/11 21:53:06;;;;;;;4.57;1.75;;;;;;;;;;10263953;28;20459;-48
2022/07/11 21:58:06;;;;;;;10.00;2.30;;;;;;;;;;10276046;28;20027;-48
2022/07/11 22:03:07;;;;;;;7.28;2.20;;;;;;;;;;10268768;28;20031;-50
2022/07/11 22:08:08;;;;;;;4.93;1.80;;;;;;;;;;10276199;28;20356;-50
2022/07/11 22:13:08;;;;;;;6.35;1.77;;;;;;;;;;10281386;28;20055;-49
2022/07/11 22:18:09;;;;;;;3.55;1.40;;;;;;;;;;10289043;28;20104;-48
2022/07/11 22:23:09;;;;;;;2.50;1.48;;;;;;;;;;10289122;28;20422;-49
2022/07/11 22:28:10;;;;;;;4.53;1.65;;;;;;;;;;10280098;28;20105;-50
2022/07/11 22:33:11;;;;;;;4.80;1.80;;;;;;;;;;10276851;28;20043;-51
2022/07/11 22:38:11;;;;;;;10.05;2.17;;;;;;;;;;10288309;28;20105;-51
2022/07/11 22:43:12;;;;;;;5.47;1.50;;;;;;;;;;10288115;28;20119;-51
2022/07/11 22:48:13;;;;;;;3.75;1.45;;;;;;;;;;10284964;28;20047;-50
2022/07/11 22:53:13;;;;;;;3.92;1.50;;;;;;;;;;10288033;28;20035;-57
2022/07/11 22:58:14;;;;;;;6.50;1.80;;;;;;;;;;10287281;28;20030;-57
2022/07/11 23:03:18;;;;;;;2.15;1.35;;;;;;;;;;10286193;28;20033;-54
2022/07/11 23:08:18;;;;;;;3.10;1.85;;;;;;;;;;10282486;28;20041;-56
2022/07/11 23:13:19;;;;;;;5.57;1.33;;;;;;;;;;10285191;28;20037;-56
2022/07/11 23:18:21;;;;;;;3.58;1.50;;;;;;;;;;10287224;28;20027;-59
2022/07/11 23:23:22;;;;;;;5.18;2.15;;;;;;;;;;10283409;28;20402;-56
2022/07/11 23:28:22;;;;;;;2.65;1.50;;;;;;;;;;10286560;28;20046;-58
2022/07/11 23:33:23;;;;;;;4.80;1.63;;;;;;;;;;10271832;28;20113;-56
2022/07/11 23:38:23;;;;;;;7.60;1.75;;;;;;;;;;10278060;28;20490;-59
2022/07/11 23:43:24;;;;;;;4.78;1.70;;;;;;;;;;10285757;28;20027;-58
2022/07/11 23:48:25;;;;;;;4.25;1.83;;;;;;;;;;10274637;28;20089;-58
2022/07/11 23:53:25;;;;;;;4.75;1.90;;;;;;;;;;10286301;28;20035;-58
2022/07/11 23:58:26;;;;;;;4.50;1.75;;;;;;;;;;10286365;28;20023;-58
